sensor_id;sensor_type;location;lat;lon;timestamp;pressure;altitude;pressure_sealevel;temperature;humidity
53546;BME280;39432;51.902;10.844;2023-02-02T00:00:35;99258.63;;;4.20;100.00
53546;BME280;39432;51.902;10.844;2023-02-02T00:03:05;99271.50;;;4.25;100.00
53546;BME280;39432;51.902;10.844;2023-02-02T00:05:36;99264.34;;;4.31;100.00
53546;BME280;39432;51.902;10.844;2023-02-02T00:08:08;99262.09;;;4.28;100.00
53546;BME280;39432;51.902;10.844;2023-02-02T00:10:38;99263.97;;;4.27;100.00
53546;BME280;39432;51.902;10.844;2023-02-02T00:13:08;99265.63;;;4.28;100.00
53546;BME280;39432;51.902;10.844;2023-02-02T00:15:37;99262.16;;;4.39;100.00
53546;BME280;39432;51.902;10.844;2023-02-02T00:18:07;99271.81;;;4.35;100.00
53546;BME280;39432;51.902;10.844;2023-02-02T00:20:37;99262.78;;;4.41;100.00
53546;BME280;39432;51.902;10.844;2023-02-02T00:23:09;99268.03;;;4.36;100.00
53546;BME280;39432;51.902;10.844;2023-02-02T00:25:38;99250.88;;;4.42;100.00
53546;BME280;39432;51.902;10.844;2023-02-02T00:28:08;99268.94;;;4.48;100.00
53546;BME280;39432;51.902;10.844;2023-02-02T00:30:37;99266.97;;;4.56;100.00
53546;BME280;39432;51.902;10.844;2023-02-02T00:33:07;99259.75;;;4.49;100.00
53546;BME280;39432;51.902;10.844;2023-02-02T00:35:40;99252.44;;;4.50;100.00
53546;BME280;39432;51.902;10.844;2023-02-02T00:38:12;99264.44;;;4.42;100.00
53546;BME280;39432;51.902;10.844;2023-02-02T00:40:42;99259.41;;;4.46;100.00
53546;BME280;39432;51.902;10.844;2023-02-02T00:43:12;99268.78;;;4.43;100.00
53546;BME280;39432;51.902;10.844;2023-02-02T00:45:41;99269.25;;;4.40;100.00
53546;BME280;39432;51.902;10.844;2023-02-02T00:48:09;99259.16;;;4.29;100.00
53546;BME280;39432;51.902;10.844;2023-02-02T00:50:39;99265.19;;;4.31;100.00
53546;BME280;39432;51.902;10.844;2023-02-02T00:53:09;99276.75;;;4.20;100.00
53546;BME280;39432;51.902;10.844;2023-02-02T00:55:41;99274.94;;;4.14;100.00
53546;BME280;39432;51.902;10.844;2023-02-02T00:58:11;99287.00;;;4.18;100.00
53546;BME280;39432;51.902;10.844;2023-02-02T01:00:40;99282.59;;;4.17;100.00
53546;BME280;39432;51.902;10.844;2023-02-02T01:03:10;99286.13;;;4.17;100.00
53546;BME280;39432;51.902;10.844;2023-02-02T01:05:39;99296.84;;;4.12;100.00
53546;BME280;39432;51.902;10.844;2023-02-02T01:08:09;99283.66;;;4.16;100.00
53546;BME280;39432;51.902;10.844;2023-02-02T01:10:41;99295.28;;;4.23;100.00
53546;BME280;39432;51.902;10.844;2023-02-02T01:13:11;99298.25;;;4.33;100.00
53546;BME280;39432;51.902;10.844;2023-02-02T01:15:41;99296.91;;;4.24;100.00
53546;BME280;39432;51.902;10.844;2023-02-02T01:18:11;99265.19;;;4.31;100.00
53546;BME280;39432;51.902;10.844;2023-02-02T01:20:40;99281.81;;;4.35;100.00
53546;BME280;39432;51.902;10.844;2023-02-02T01:23:10;99304.66;;;4.39;100.00
53546;BME280;39432;51.902;10.844;2023-02-02T01:25:42;99293.00;;;4.38;100.00
53546;BME280;39432;51.902;10.844;2023-02-02T01:28:13;99294.53;;;4.34;100.00
53546;BME280;39432;51.902;10.844;2023-02-02T01:30:43;99288.06;;;4.35;100.00
53546;BME280;39432;51.902;10.844;2023-02-02T01:33:14;99298.97;;;4.29;100.00
53546;BME280;39432;51.902;10.844;2023-02-02T01:35:44;99294.81;;;4.26;100.00
53546;BME280;39432;51.902;10.844;2023-02-02T01:38:15;99282.72;;;4.29;100.00
53546;BME280;39432;51.902;10.844;2023-02-02T01:40:49;99303.75;;;4.27;100.00
53546;BME280;39432;51.902;10.844;2023-02-02T01:43:22;99303.97;;;4.25;100.00
53546;BME280;39432;51.902;10.844;2023-02-02T01:45:53;99322.78;;;4.20;100.00
53546;BME280;39432;51.902;10.844;2023-02-02T01:48:26;99312.25;;;4.30;100.00
53546;BME280;39432;51.902;10.844;2023-02-02T01:51:06;99324.81;;;4.25;100.00
53546;BME280;39432;51.902;10.844;2023-02-02T01:53:37;99310.53;;;4.36;100.00
53546;BME280;39432;51.902;10.844;2023-02-02T01:56:14;99339.66;;;4.40;100.00
53546;BME280;39432;51.902;10.844;2023-02-02T01:58:45;99329.84;;;4.39;100.00
53546;BME280;39432;51.902;10.844;2023-02-02T02:01:16;99334.25;;;4.40;100.00
53546;BME280;39432;51.902;10.844;2023-02-02T02:03:46;99342.97;;;4.42;100.00
53546;BME280;39432;51.902;10.844;2023-02-02T02:06:17;99343.88;;;4.36;100.00
53546;BME280;39432;51.902;10.844;2023-02-02T02:08:50;99355.44;;;4.43;100.00
53546;BME280;39432;51.902;10.844;2023-02-02T02:11:23;99344.38;;;4.45;100.00
53546;BME280;39432;51.902;10.844;2023-02-02T02:13:56;99333.19;;;4.41;100.00
53546;BME280;39432;51.902;10.844;2023-02-02T02:16:48;99323.78;;;4.44;100.00
53546;BME280;39432;51.902;10.844;2023-02-02T02:19:51;99325.41;;;4.45;100.00
53546;BME280;39432;51.902;10.844;2023-02-02T02:23:03;99319.56;;;4.48;100.00
53546;BME280;39432;51.902;10.844;2023-02-02T02:26:04;99324.41;;;4.46;100.00
53546;BME280;39432;51.902;10.844;2023-02-02T02:29:12;99329.19;;;4.44;100.00
53546;BME280;39432;51.902;10.844;2023-02-02T02:32:13;99318.91;;;4.34;100.00
53546;BME280;39432;51.902;10.844;2023-02-02T02:34:51;99328.59;;;4.42;100.00
53546;BME280;39432;51.902;10.844;2023-02-02T02:37:31;99334.25;;;4.40;100.00
53546;BME280;39432;51.902;10.844;2023-02-02T02:40:10;99318.44;;;4.37;100.00
53546;BME280;39432;51.902;10.844;2023-02-02T02:42:44;99327.53;;;4.43;100.00
53546;BME280;39432;51.902;10.844;2023-02-02T02:45:16;99330.63;;;4.46;100.00
53546;BME280;39432;51.902;10.844;2023-02-02T02:47:49;99335.31;;;4.58;100.00
53546;BME280;39432;51.902;10.844;2023-02-02T02:50:20;99352.63;;;4.57;100.00
53546;BME280;39432;51.902;10.844;2023-02-02T02:52:58;99339.50;;;4.54;100.00
53546;BME280;39432;51.902;10.844;2023-02-02T02:55:36;99359.06;;;4.56;100.00
53546;BME280;39432;51.902;10.844;2023-02-02T02:58:11;99368.72;;;4.52;100.00
53546;BME280;39432;51.902;10.844;2023-02-02T03:00:48;99355.09;;;4.58;100.00
53546;BME280;39432;51.902;10.844;2023-02-02T03:03:28;99362.84;;;4.55;100.00
53546;BME280;39432;51.902;10.844;2023-02-02T03:06:07;99365.53;;;4.55;100.00
53546;BME280;39432;51.902;10.844;2023-02-02T03:08:44;99381.94;;;4.60;100.00
53546;BME280;39432;51.902;10.844;2023-02-02T03:11:16;99380.06;;;4.60;100.00
53546;BME280;39432;51.902;10.844;2023-02-02T03:13:46;99390.25;;;4.65;100.00
53546;BME280;39432;51.902;10.844;2023-02-02T03:16:16;99384.44;;;4.61;100.00
53546;BME280;39432;51.902;10.844;2023-02-02T03:18:48;99382.69;;;4.67;100.00
53546;BME280;39432;51.902;10.844;2023-02-02T03:21:18;99395.66;;;4.65;100.00
53546;BME280;39432;51.902;10.844;2023-02-02T03:23:47;99388.59;;;4.64;100.00
53546;BME280;39432;51.902;10.844;2023-02-02T03:26:17;99397.31;;;4.66;100.00
53546;BME280;39432;51.902;10.844;2023-02-02T03:28:47;99388.00;;;4.62;100.00
53546;BME280;39432;51.902;10.844;2023-02-02T03:31:18;99391.56;;;4.56;100.00
53546;BME280;39432;51.902;10.844;2023-02-02T03:33:50;99387.84;;;4.57;100.00
53546;BME280;39432;51.902;10.844;2023-02-02T03:36:19;99397.63;;;4.58;100.00
53546;BME280;39432;51.902;10.844;2023-02-02T03:38:49;99396.56;;;4.59;100.00
53546;BME280;39432;51.902;10.844;2023-02-02T03:41:19;99395.13;;;4.56;100.00
53546;BME280;39432;51.902;10.844;2023-02-02T03:43:49;99399.56;;;4.51;100.00
53546;BME280;39432;51.902;10.844;2023-02-02T03:46:18;99404.59;;;4.47;100.00
53546;BME280;39432;51.902;10.844;2023-02-02T03:48:50;99398.50;;;4.52;100.00
53546;BME280;39432;51.902;10.844;2023-02-02T03:51:20;99407.53;;;4.45;100.00
53546;BME280;39432;51.902;10.844;2023-02-02T03:53:49;99408.72;;;4.49;100.00
53546;BME280;39432;51.902;10.844;2023-02-02T03:56:19;99407.91;;;4.49;100.00
53546;BME280;39432;51.902;10.844;2023-02-02T03:58:49;99394.00;;;4.45;100.00
53546;BME280;39432;51.902;10.844;2023-02-02T04:01:26;99390.06;;;4.41;100.00
53546;BME280;39432;51.902;10.844;2023-02-02T04:03:58;99408.03;;;4.36;100.00
53546;BME280;39432;51.902;10.844;2023-02-02T04:06:28;99420.91;;;4.40;100.00
53546;BME280;39432;51.902;10.844;2023-02-02T04:08:57;99413.22;;;4.37;100.00
53546;BME280;39432;51.902;10.844;2023-02-02T04:11:27;99410.97;;;4.34;100.00
53546;BME280;39432;51.902;10.844;2023-02-02T04:13:57;99426.59;;;4.32;100.00
53546;BME280;39432;51.902;10.844;2023-02-02T04:16:26;99430.00;;;4.21;100.00
53546;BME280;39432;51.902;10.844;2023-02-02T04:19:03;99436.44;;;4.27;100.00
53546;BME280;39432;51.902;10.844;2023-02-02T04:21:33;99431.00;;;4.27;100.00
53546;BME280;39432;51.902;10.844;2023-02-02T04:24:02;99425.81;;;4.25;100.00
53546;BME280;39432;51.902;10.844;2023-02-02T04:26:32;99433.19;;;4.18;100.00
53546;BME280;39432;51.902;10.844;2023-02-02T04:29:02;99432.78;;;4.14;100.00
53546;BME280;39432;51.902;10.844;2023-02-02T04:31:31;99445.50;;;4.14;100.00
53546;BME280;39432;51.902;10.844;2023-02-02T04:34:04;99448.97;;;4.21;100.00
53546;BME280;39432;51.902;10.844;2023-02-02T04:36:34;99451.09;;;4.19;100.00
53546;BME280;39432;51.902;10.844;2023-02-02T04:39:04;99448.75;;;4.22;100.00
53546;BME280;39432;51.902;10.844;2023-02-02T04:41:34;99465.66;;;4.18;100.00
53546;BME280;39432;51.902;10.844;2023-02-02T04:44:04;99459.38;;;4.24;100.00
53546;BME280;39432;51.902;10.844;2023-02-02T04:46:36;99465.56;;;4.31;100.00
53546;BME280;39432;51.902;10.844;2023-02-02T04:49:08;99460.44;;;4.23;100.00
53546;BME280;39432;51.902;10.844;2023-02-02T04:51:39;99466.44;;;4.25;100.00
53546;BME280;39432;51.902;10.844;2023-02-02T04:54:09;99472.28;;;4.22;100.00
53546;BME280;39432;51.902;10.844;2023-02-02T04:56:39;99474.78;;;4.23;100.00
53546;BME280;39432;51.902;10.844;2023-02-02T04:59:08;99480.16;;;4.30;100.00
53546;BME280;39432;51.902;10.844;2023-02-02T05:01:38;99477.63;;;4.35;100.00
53546;BME280;39432;51.902;10.844;2023-02-02T05:04:10;99473.41;;;4.39;100.00
53546;BME280;39432;51.902;10.844;2023-02-02T05:06:40;99480.91;;;4.37;100.00
53546;BME280;39432;51.902;10.844;2023-02-02T05:09:09;99483.22;;;4.34;100.00
53546;BME280;39432;51.902;10.844;2023-02-02T05:11:40;99486.94;;;4.39;100.00
53546;BME280;39432;51.902;10.844;2023-02-02T05:14:10;99488.00;;;4.38;100.00
53546;BME280;39432;51.902;10.844;2023-02-02T05:16:44;99501.28;;;4.46;100.00
53546;BME280;39432;51.902;10.844;2023-02-02T05:19:18;99506.28;;;4.43;100.00
53546;BME280;39432;51.902;10.844;2023-02-02T05:21:47;99508.34;;;4.47;100.00
53546;BME280;39432;51.902;10.844;2023-02-02T05:24:17;99511.88;;;4.48;100.00
53546;BME280;39432;51.902;10.844;2023-02-02T05:26:47;99505.56;;;4.54;100.00
53546;BME280;39432;51.902;10.844;2023-02-02T05:29:16;99506.25;;;4.49;100.00
53546;BME280;39432;51.902;10.844;2023-02-02T05:31:46;99513.94;;;4.53;100.00
53546;BME280;39432;51.902;10.844;2023-02-02T05:34:18;99525.38;;;4.55;100.00
53546;BME280;39432;51.902;10.844;2023-02-02T05:36:48;99526.88;;;4.51;100.00
53546;BME280;39432;51.902;10.844;2023-02-02T05:39:18;99515.19;;;4.50;100.00
53546;BME280;39432;51.902;10.844;2023-02-02T05:41:48;99526.47;;;4.47;100.00
53546;BME280;39432;51.902;10.844;2023-02-02T05:44:17;99530.91;;;4.41;100.00
53546;BME280;39432;51.902;10.844;2023-02-02T05:46:47;99532.16;;;4.39;100.00
53546;BME280;39432;51.902;10.844;2023-02-02T05:49:19;99531.31;;;4.38;100.00
53546;BME280;39432;51.902;10.844;2023-02-02T05:51:51;99523.38;;;4.43;100.00
53546;BME280;39432;51.902;10.844;2023-02-02T05:54:23;99535.50;;;4.41;100.00
53546;BME280;39432;51.902;10.844;2023-02-02T05:56:53;99536.50;;;4.46;100.00
53546;BME280;39432;51.902;10.844;2023-02-02T05:59:23;99542.50;;;4.48;100.00
53546;BME280;39432;51.902;10.844;2023-02-02T06:01:52;99552.16;;;4.38;100.00
53546;BME280;39432;51.902;10.844;2023-02-02T06:04:25;99555.94;;;4.37;100.00
53546;BME280;39432;51.902;10.844;2023-02-02T06:06:54;99554.22;;;4.42;100.00
53546;BME280;39432;51.902;10.844;2023-02-02T06:09:24;99559.22;;;4.45;100.00
53546;BME280;39432;51.902;10.844;2023-02-02T06:11:53;99549.84;;;4.41;100.00
53546;BME280;39432;51.902;10.844;2023-02-02T06:14:23;99557.22;;;4.34;100.00
53546;BME280;39432;51.902;10.844;2023-02-02T06:16:53;99561.25;;;4.50;100.00
53546;BME280;39432;51.902;10.844;2023-02-02T06:19:25;99572.59;;;4.40;100.00
53546;BME280;39432;51.902;10.844;2023-02-02T06:21:54;99570.91;;;4.39;100.00
53546;BME280;39432;51.902;10.844;2023-02-02T06:24:24;99562.56;;;4.41;100.00
53546;BME280;39432;51.902;10.844;2023-02-02T06:26:54;99575.47;;;4.45;100.00
53546;BME280;39432;51.902;10.844;2023-02-02T06:29:23;99564.63;;;4.45;100.00
53546;BME280;39432;51.902;10.844;2023-02-02T06:31:53;99565.47;;;4.46;100.00
53546;BME280;39432;51.902;10.844;2023-02-02T06:34:25;99586.66;;;4.49;100.00
53546;BME280;39432;51.902;10.844;2023-02-02T06:36:55;99599.16;;;4.57;100.00
53546;BME280;39432;51.902;10.844;2023-02-02T06:39:24;99586.84;;;4.54;100.00
53546;BME280;39432;51.902;10.844;2023-02-02T06:41:54;99593.72;;;4.57;100.00
53546;BME280;39432;51.902;10.844;2023-02-02T06:44:31;99600.34;;;4.61;100.00
53546;BME280;39432;51.902;10.844;2023-02-02T06:47:01;99586.53;;;4.69;100.00
53546;BME280;39432;51.902;10.844;2023-02-02T06:49:33;99595.28;;;4.71;100.00
53546;BME280;39432;51.902;10.844;2023-02-02T06:52:03;99595.09;;;4.66;100.00
53546;BME280;39432;51.902;10.844;2023-02-02T06:54:33;99597.56;;;4.74;100.00
53546;BME280;39432;51.902;10.844;2023-02-02T06:57:02;99594.44;;;4.70;100.00
53546;BME280;39432;51.902;10.844;2023-02-02T06:59:32;99591.50;;;4.72;100.00
53546;BME280;39432;51.902;10.844;2023-02-02T07:02:01;99602.34;;;4.72;100.00
53546;BME280;39432;51.902;10.844;2023-02-02T07:04:33;99597.28;;;4.82;100.00
53546;BME280;39432;51.902;10.844;2023-02-02T07:07:03;99605.22;;;4.84;100.00
53546;BME280;39432;51.902;10.844;2023-02-02T07:09:33;99604.34;;;4.83;100.00
53546;BME280;39432;51.902;10.844;2023-02-02T07:12:03;99606.69;;;4.80;100.00
53546;BME280;39432;51.902;10.844;2023-02-02T07:14:32;99618.97;;;4.82;100.00
53546;BME280;39432;51.902;10.844;2023-02-02T07:17:02;99612.75;;;4.75;100.00
53546;BME280;39432;51.902;10.844;2023-02-02T07:19:34;99608.28;;;4.87;100.00
53546;BME280;39432;51.902;10.844;2023-02-02T07:22:04;99614.19;;;4.78;100.00
53546;BME280;39432;51.902;10.844;2023-02-02T07:24:34;99626.91;;;4.77;100.00
53546;BME280;39432;51.902;10.844;2023-02-02T07:27:03;99622.19;;;4.72;100.00
53546;BME280;39432;51.902;10.844;2023-02-02T07:29:33;99633.78;;;4.80;100.00
53546;BME280;39432;51.902;10.844;2023-02-02T07:32:03;99642.41;;;4.70;100.00
53546;BME280;39432;51.902;10.844;2023-02-02T07:34:36;99635.69;;;4.79;100.00
53546;BME280;39432;51.902;10.844;2023-02-02T07:37:08;99643.16;;;4.77;100.00
53546;BME280;39432;51.902;10.844;2023-02-02T07:39:38;99651.47;;;4.82;100.00
53546;BME280;39432;51.902;10.844;2023-02-02T07:42:10;99650.41;;;4.90;100.00
53546;BME280;39432;51.902;10.844;2023-02-02T07:44:40;99646.47;;;4.86;100.00
53546;BME280;39432;51.902;10.844;2023-02-02T07:47:10;99648.47;;;4.97;100.00
53546;BME280;39432;51.902;10.844;2023-02-02T07:49:42;99648.13;;;4.87;100.00
53546;BME280;39432;51.902;10.844;2023-02-02T07:52:11;99658.91;;;4.93;100.00
53546;BME280;39432;51.902;10.844;2023-02-02T07:54:41;99666.16;;;4.99;100.00
53546;BME280;39432;51.902;10.844;2023-02-02T07:57:11;99665.91;;;5.08;100.00
53546;BME280;39432;51.902;10.844;2023-02-02T07:59:41;99664.25;;;5.07;100.00
53546;BME280;39432;51.902;10.844;2023-02-02T08:02:10;99661.06;;;5.10;100.00
53546;BME280;39432;51.902;10.844;2023-02-02T08:04:42;99668.78;;;5.13;100.00
53546;BME280;39432;51.902;10.844;2023-02-02T08:07:13;99672.00;;;5.28;100.00
53546;BME280;39432;51.902;10.844;2023-02-02T08:09:45;99678.81;;;5.12;100.00
53546;BME280;39432;51.902;10.844;2023-02-02T08:12:15;99685.81;;;5.20;100.00
53546;BME280;39432;51.902;10.844;2023-02-02T08:14:46;99692.47;;;5.24;100.00
53546;BME280;39432;51.902;10.844;2023-02-02T08:17:16;99698.25;;;5.34;100.00
53546;BME280;39432;51.902;10.844;2023-02-02T08:19:48;99691.88;;;5.22;100.00
53546;BME280;39432;51.902;10.844;2023-02-02T08:22:18;99702.94;;;5.20;100.00
53546;BME280;39432;51.902;10.844;2023-02-02T08:24:47;99713.72;;;5.27;100.00
53546;BME280;39432;51.902;10.844;2023-02-02T08:27:17;99721.03;;;5.26;100.00
53546;BME280;39432;51.902;10.844;2023-02-02T08:29:47;99725.72;;;5.44;100.00
53546;BME280;39432;51.902;10.844;2023-02-02T08:32:16;99717.69;;;5.56;100.00
53546;BME280;39432;51.902;10.844;2023-02-02T08:34:49;99722.81;;;5.39;100.00
53546;BME280;39432;51.902;10.844;2023-02-02T08:37:20;99723.72;;;5.33;100.00
53546;BME280;39432;51.902;10.844;2023-02-02T08:39:50;99730.28;;;5.44;100.00
53546;BME280;39432;51.902;10.844;2023-02-02T08:42:19;99730.00;;;5.27;100.00
53546;BME280;39432;51.902;10.844;2023-02-02T08:44:49;99732.84;;;5.39;100.00
53546;BME280;39432;51.902;10.844;2023-02-02T08:47:38;99732.06;;;5.57;100.00
53546;BME280;39432;51.902;10.844;2023-02-02T08:50:11;99732.72;;;5.52;100.00
53546;BME280;39432;51.902;10.844;2023-02-02T08:52:40;99735.69;;;5.50;100.00
53546;BME280;39432;51.902;10.844;2023-02-02T08:55:10;99742.31;;;5.54;100.00
53546;BME280;39432;51.902;10.844;2023-02-02T08:57:40;99736.78;;;5.68;100.00
53546;BME280;39432;51.902;10.844;2023-02-02T09:00:11;99740.00;;;5.76;100.00
53546;BME280;39432;51.902;10.844;2023-02-02T09:02:41;99745.69;;;5.75;100.00
53546;BME280;39432;51.902;10.844;2023-02-02T09:05:13;99740.22;;;5.57;100.00
53546;BME280;39432;51.902;10.844;2023-02-02T09:07:42;99753.59;;;5.51;100.00
53546;BME280;39432;51.902;10.844;2023-02-02T09:10:15;99745.56;;;5.63;100.00
53546;BME280;39432;51.902;10.844;2023-02-02T09:12:45;99750.69;;;5.78;100.00
53546;BME280;39432;51.902;10.844;2023-02-02T09:15:14;99747.66;;;5.86;100.00
53546;BME280;39432;51.902;10.844;2023-02-02T09:17:44;99750.03;;;5.76;100.00
53546;BME280;39432;51.902;10.844;2023-02-02T09:20:17;99761.19;;;5.93;100.00
53546;BME280;39432;51.902;10.844;2023-02-02T09:22:47;99759.34;;;6.12;100.00
53546;BME280;39432;51.902;10.844;2023-02-02T09:25:17;99762.28;;;5.85;100.00
53546;BME280;39432;51.902;10.844;2023-02-02T09:27:46;99764.06;;;5.98;100.00
53546;BME280;39432;51.902;10.844;2023-02-02T09:30:16;99763.34;;;5.84;100.00
53546;BME280;39432;51.902;10.844;2023-02-02T09:32:48;99765.84;;;5.86;100.00
53546;BME280;39432;51.902;10.844;2023-02-02T09:35:20;99769.50;;;5.98;100.00
53546;BME280;39432;51.902;10.844;2023-02-02T09:37:50;99781.66;;;5.95;100.00
53546;BME280;39432;51.902;10.844;2023-02-02T09:40:20;99777.00;;;6.02;100.00
53546;BME280;39432;51.902;10.844;2023-02-02T09:43:01;99785.28;;;6.07;100.00
53546;BME280;39432;51.902;10.844;2023-02-02T09:45:39;99791.63;;;6.01;100.00
53546;BME280;39432;51.902;10.844;2023-02-02T09:48:20;99789.91;;;6.07;100.00
53546;BME280;39432;51.902;10.844;2023-02-02T09:50:55;99796.31;;;5.94;100.00
53546;BME280;39432;51.902;10.844;2023-02-02T09:53:36;99792.72;;;6.19;100.00
53546;BME280;39432;51.902;10.844;2023-02-02T09:56:23;99792.38;;;6.08;100.00
53546;BME280;39432;51.902;10.844;2023-02-02T09:58:56;99803.25;;;6.08;100.00
53546;BME280;39432;51.902;10.844;2023-02-02T10:01:43;99794.91;;;6.10;100.00
53546;BME280;39432;51.902;10.844;2023-02-02T10:04:19;99800.84;;;6.00;100.00
53546;BME280;39432;51.902;10.844;2023-02-02T10:06:55;99805.81;;;6.03;100.00
53546;BME280;39432;51.902;10.844;2023-02-02T10:09:30;99805.31;;;6.13;100.00
53546;BME280;39432;51.902;10.844;2023-02-02T10:12:11;99809.50;;;6.09;100.00
53546;BME280;39432;51.902;10.844;2023-02-02T10:14:51;99806.88;;;6.02;100.00
53546;BME280;39432;51.902;10.844;2023-02-02T10:17:34;99805.13;;;6.08;100.00
53546;BME280;39432;51.902;10.844;2023-02-02T10:20:16;99819.22;;;5.98;100.00
53546;BME280;39432;51.902;10.844;2023-02-02T10:22:50;99820.44;;;6.02;100.00
53546;BME280;39432;51.902;10.844;2023-02-02T10:25:25;99825.69;;;6.22;100.00
53546;BME280;39432;51.902;10.844;2023-02-02T10:28:03;99819.69;;;5.95;100.00
53546;BME280;39432;51.902;10.844;2023-02-02T10:30:41;99826.22;;;6.13;100.00
53546;BME280;39432;51.902;10.844;2023-02-02T10:33:20;99829.72;;;6.38;100.00
53546;BME280;39432;51.902;10.844;2023-02-02T10:35:59;99829.63;;;6.26;100.00
53546;BME280;39432;51.902;10.844;2023-02-02T10:38:42;99838.06;;;6.18;100.00
53546;BME280;39432;51.902;10.844;2023-02-02T10:41:21;99841.34;;;6.27;100.00
53546;BME280;39432;51.902;10.844;2023-02-02T10:44:15;99829.09;;;6.18;100.00
53546;BME280;39432;51.902;10.844;2023-02-02T10:46:50;99827.44;;;6.35;100.00
53546;BME280;39432;51.902;10.844;2023-02-02T10:49:26;99827.22;;;6.37;100.00
53546;BME280;39432;51.902;10.844;2023-02-02T10:52:04;99835.75;;;6.40;100.00
53546;BME280;39432;51.902;10.844;2023-02-02T10:54:52;99841.19;;;6.40;100.00
53546;BME280;39432;51.902;10.844;2023-02-02T10:57:41;99841.78;;;6.42;100.00
53546;BME280;39432;51.902;10.844;2023-02-02T11:00:19;99849.84;;;6.30;100.00
53546;BME280;39432;51.902;10.844;2023-02-02T11:02:51;99837.78;;;6.26;100.00
53546;BME280;39432;51.902;10.844;2023-02-02T11:05:22;99838.47;;;6.40;100.00
53546;BME280;39432;51.902;10.844;2023-02-02T11:08:13;99837.13;;;6.49;100.00
53546;BME280;39432;51.902;10.844;2023-02-02T11:10:47;99839.31;;;6.41;100.00
53546;BME280;39432;51.902;10.844;2023-02-02T11:13:24;99840.38;;;6.15;100.00
53546;BME280;39432;51.902;10.844;2023-02-02T11:16:24;99839.94;;;6.18;100.00
53546;BME280;39432;51.902;10.844;2023-02-02T11:19:21;99845.72;;;6.46;100.00
53546;BME280;39432;51.902;10.844;2023-02-02T11:21:53;99844.06;;;6.45;100.00
53546;BME280;39432;51.902;10.844;2023-02-02T11:24:27;99854.72;;;6.47;100.00
53546;BME280;39432;51.902;10.844;2023-02-02T11:27:06;99852.81;;;6.29;100.00
53546;BME280;39432;51.902;10.844;2023-02-02T11:29:43;99866.22;;;6.24;100.00
53546;BME280;39432;51.902;10.844;2023-02-02T11:32:17;99853.81;;;6.53;100.00
53546;BME280;39432;51.902;10.844;2023-02-02T11:34:48;99856.13;;;6.31;100.00
53546;BME280;39432;51.902;10.844;2023-02-02T11:37:20;99865.97;;;6.50;100.00
53546;BME280;39432;51.902;10.844;2023-02-02T11:39:50;99868.03;;;6.30;100.00
53546;BME280;39432;51.902;10.844;2023-02-02T11:42:23;99865.41;;;6.42;100.00
53546;BME280;39432;51.902;10.844;2023-02-02T11:44:56;99862.00;;;6.71;100.00
53546;BME280;39432;51.902;10.844;2023-02-02T11:47:27;99863.78;;;6.59;100.00
53546;BME280;39432;51.902;10.844;2023-02-02T11:50:00;99864.00;;;6.57;100.00
53546;BME280;39432;51.902;10.844;2023-02-02T11:52:32;99866.63;;;6.46;100.00
53546;BME280;39432;51.902;10.844;2023-02-02T11:55:08;99858.63;;;6.32;100.00
53546;BME280;39432;51.902;10.844;2023-02-02T11:58:09;99867.78;;;6.38;100.00
53546;BME280;39432;51.902;10.844;2023-02-02T12:00:45;99851.78;;;6.48;100.00
53546;BME280;39432;51.902;10.844;2023-02-02T12:03:23;99852.69;;;6.60;100.00
53546;BME280;39432;51.902;10.844;2023-02-02T12:05:53;99841.94;;;6.47;100.00
53546;BME280;39432;51.902;10.844;2023-02-02T12:08:23;99836.81;;;6.39;100.00
53546;BME280;39432;51.902;10.844;2023-02-02T12:10:57;99853.22;;;6.51;100.00
53546;BME280;39432;51.902;10.844;2023-02-02T12:13:50;99853.88;;;6.46;100.00
53546;BME280;39432;51.902;10.844;2023-02-02T12:16:33;99844.81;;;6.52;100.00
53546;BME280;39432;51.902;10.844;2023-02-02T12:19:23;99857.91;;;6.62;100.00
53546;BME280;39432;51.902;10.844;2023-02-02T12:22:02;99859.88;;;6.55;100.00
53546;BME280;39432;51.902;10.844;2023-02-02T12:24:42;99864.16;;;6.63;100.00
53546;BME280;39432;51.902;10.844;2023-02-02T12:27:23;99870.66;;;6.43;100.00
53546;BME280;39432;51.902;10.844;2023-02-02T12:30:08;99876.44;;;6.47;100.00
53546;BME280;39432;51.902;10.844;2023-02-02T12:32:52;99876.94;;;6.37;100.00
53546;BME280;39432;51.902;10.844;2023-02-02T12:38:29;99881.47;;;6.25;100.00
53546;BME280;39432;51.902;10.844;2023-02-02T12:41:15;99877.59;;;6.57;100.00
53546;BME280;39432;51.902;10.844;2023-02-02T12:43:49;99878.34;;;6.46;100.00
53546;BME280;39432;51.902;10.844;2023-02-02T12:49:37;99873.69;;;6.90;100.00
53546;BME280;39432;51.902;10.844;2023-02-02T12:52:20;99878.69;;;6.93;100.00
53546;BME280;39432;51.902;10.844;2023-02-02T12:55:03;99876.19;;;6.73;100.00
53546;BME280;39432;51.902;10.844;2023-02-02T12:57:46;99874.13;;;6.69;100.00
53546;BME280;39432;51.902;10.844;2023-02-02T13:00:48;99876.19;;;6.73;100.00
53546;BME280;39432;51.902;10.844;2023-02-02T13:03:35;99886.97;;;6.80;100.00
53546;BME280;39432;51.902;10.844;2023-02-02T13:06:43;99877.31;;;6.84;100.00
53546;BME280;39432;51.902;10.844;2023-02-02T13:09:22;99884.72;;;6.95;100.00
53546;BME280;39432;51.902;10.844;2023-02-02T13:11:58;99897.41;;;6.83;100.00
53546;BME280;39432;51.902;10.844;2023-02-02T13:14:32;99893.47;;;6.79;100.00
53546;BME280;39432;51.902;10.844;2023-02-02T13:17:06;99901.19;;;6.82;100.00
53546;BME280;39432;51.902;10.844;2023-02-02T13:19:44;99898.13;;;6.53;100.00
53546;BME280;39432;51.902;10.844;2023-02-02T13:22:21;99898.28;;;6.58;100.00
53546;BME280;39432;51.902;10.844;2023-02-02T13:24:54;99898.91;;;6.60;100.00
53546;BME280;39432;51.902;10.844;2023-02-02T13:27:28;99895.44;;;6.72;100.00
53546;BME280;39432;51.902;10.844;2023-02-02T13:30:03;99901.47;;;6.74;100.00